»·PEaware :: N615LG KKNB-KLGB

N615LG :: KKNB-KLGB

FLIGHT INFORMATION

Flight Status: Arrived
Operator: Privately registered:
United States
More flights under this callsign
Pilot: Jordan O. (2051)
Aircraft: CIRRUS VISIONJET
(SF50)
More flights by this aircraft type
Origin: KKNB Kanab Mun
United States
Destination: KLGB Long Beach
United States
More flights between these airports :: More routes between these airports
Route: NATEE DSNEE5
File this flight plan on PilotEdge
Remarks: ODP
Altitude:
(Current/Filed)
28,000ft
Speed:
(Current/Filed)
300kts
Departed: 24-Sep-22 08:34 PM
Arrived: 24-Sep-22 09:59 PM
Distance/Time
Traveled:
335nm/1:25
Distance/Time
To Go:
Arrived

Flight Plot

Page will automatically refresh every two minutes.

Flight plan parsing failed; only flown route is shown


Map Options




Map Legend


Flown Route
Filed Route
Departure Airport
Arrival Airport
Navaid (VOR, NDB)
Fix

Horizontal Profiles

Position Reports

Time Latitude Longitude Heading Altitude Ground
Speed
24-Sep-22 19:58 37.009890 -112.530394 21 4835ft 0kts
24-Sep-22 19:59 37.009890 -112.530394 21 4835ft 0kts
24-Sep-22 20:00 37.009890 -112.530394 21 4835ft 0kts
24-Sep-22 20:01 37.009890 -112.530394 21 4835ft 0kts
24-Sep-22 20:02 37.009890 -112.530394 21 4835ft 0kts
24-Sep-22 20:03 37.009890 -112.530394 21 4835ft 0kts
24-Sep-22 20:04 37.009890 -112.530394 21 4835ft 0kts
24-Sep-22 20:05 37.009890 -112.530394 21 4835ft 0kts
24-Sep-22 20:06 37.009890 -112.530394 21 4835ft 0kts
24-Sep-22 20:07 37.009890 -112.530394 21 4835ft 0kts
24-Sep-22 20:08 37.009890 -112.530394 21 4835ft 0kts
24-Sep-22 20:09 37.009890 -112.530394 21 4835ft 0kts
24-Sep-22 20:10 37.009890 -112.530394 21 4835ft 0kts
24-Sep-22 20:11 37.009890 -112.530394 21 4835ft 0kts
24-Sep-22 20:12 37.009890 -112.530394 21 4835ft 0kts
24-Sep-22 20:13 37.009890 -112.530394 21 4835ft 0kts
24-Sep-22 20:14 37.009890 -112.530394 21 4835ft 0kts
24-Sep-22 20:15 37.009890 -112.530394 21 4835ft 0kts
24-Sep-22 20:16 37.009890 -112.530394 21 4835ft 0kts
24-Sep-22 20:17 37.009890 -112.530394 21 4835ft 0kts
24-Sep-22 20:18 37.010074 -112.530555 340 4835ft 3kts
24-Sep-22 20:19 37.013582 -112.530040 19 4844ft 21kts
24-Sep-22 20:20 37.018069 -112.527077 64 4856ft 6kts
24-Sep-22 20:21 37.018192 -112.527029 294 4856ft 0kts
24-Sep-22 20:22 37.018192 -112.527029 294 4856ft 0kts
24-Sep-22 20:23 37.018192 -112.527029 294 4856ft 0kts
24-Sep-22 20:24 37.018192 -112.527029 294 4856ft 0kts
24-Sep-22 20:25 37.018192 -112.527029 294 4856ft 0kts
24-Sep-22 20:26 37.018192 -112.527029 294 4856ft 0kts
24-Sep-22 20:27 37.018192 -112.527029 294 4856ft 0kts
24-Sep-22 20:28 37.018192 -112.527029 294 4856ft 0kts
24-Sep-22 20:29 37.018192 -112.527029 294 4856ft 0kts
24-Sep-22 20:30 37.018192 -112.527029 294 4856ft 0kts
24-Sep-22 20:31 37.018192 -112.527029 294 4856ft 0kts
24-Sep-22 20:32 37.018295 -112.527428 287 4856ft 9kts
24-Sep-22 20:33 37.012135 -112.530739 200 4839ft 102kts
24-Sep-22 20:34 36.974971 -112.537323 181 6434ft 137kts
24-Sep-22 20:35 36.935149 -112.540626 188 8358ft 141kts
24-Sep-22 20:36 36.900637 -112.565933 229 10089ft 157kts
24-Sep-22 20:37 36.872465 -112.607454 229 11420ft 202kts
24-Sep-22 20:38 36.831621 -112.667710 229 12906ft 237kts
24-Sep-22 20:39 36.786721 -112.734014 229 14357ft 249kts
24-Sep-22 20:40 36.740711 -112.801955 229 15911ft 247kts
24-Sep-22 20:41 36.695703 -112.867274 229 17524ft 242kts
24-Sep-22 20:42 36.651105 -112.931546 229 19158ft 236kts
24-Sep-22 20:43 36.608265 -112.993130 229 20956ft 223kts
24-Sep-22 20:44 36.565463 -113.054582 229 22226ft 232kts
24-Sep-22 20:45 36.521707 -113.117278 229 23490ft 235kts
24-Sep-22 20:46 36.477165 -113.180994 229 24591ft 239kts
24-Sep-22 20:47 36.431807 -113.245750 229 25587ft 243kts
24-Sep-22 20:48 36.398785 -113.292817 229 26241ft 246kts
24-Sep-22 20:49 36.352291 -113.358983 229 27062ft 250kts
24-Sep-22 20:50 36.304685 -113.426611 228 27790ft 255kts
24-Sep-22 20:51 36.256438 -113.494987 227 28475ft 257kts
24-Sep-22 20:52 36.207531 -113.564123 227 29056ft 261kts
24-Sep-22 20:53 36.156047 -113.636751 227 29020ft 281kts
24-Sep-22 20:54 36.102336 -113.712361 227 28963ft 290kts
24-Sep-22 20:55 36.047909 -113.788841 228 28890ft 295kts
24-Sep-22 20:56 35.992860 -113.866003 228 28830ft 297kts
24-Sep-22 20:57 35.937099 -113.943993 228 28769ft 297kts
24-Sep-22 20:58 35.880350 -114.023179 228 28728ft 296kts
24-Sep-22 20:59 35.823100 -114.102871 228 28744ft 294kts
24-Sep-22 21:00 35.766603 -114.181320 228 28712ft 295kts
24-Sep-22 21:01 35.709917 -114.259851 228 28692ft 294kts
24-Sep-22 21:02 35.668797 -114.316622 227 28669ft 294kts
24-Sep-22 21:03 35.613763 -114.392606 228 28668ft 293kts
24-Sep-22 21:04 35.558515 -114.468700 228 28648ft 293kts
24-Sep-22 21:05 35.503785 -114.543886 228 28632ft 293kts
24-Sep-22 21:06 35.453927 -114.612227 228 28589ft 293kts
24-Sep-22 21:07 35.397302 -114.689673 227 28577ft 292kts
24-Sep-22 21:08 35.342130 -114.764961 227 28576ft 292kts
24-Sep-22 21:09 35.285712 -114.841774 227 28565ft 292kts
24-Sep-22 21:10 35.244449 -114.929053 252 28567ft 291kts
24-Sep-22 21:11 35.219450 -115.026934 252 28579ft 291kts
24-Sep-22 21:12 35.194451 -115.124699 252 28590ft 291kts
24-Sep-22 21:13 35.169465 -115.222055 252 28614ft 291kts
24-Sep-22 21:14 35.144335 -115.319604 252 28630ft 291kts
24-Sep-22 21:15 35.120878 -115.410698 252 28655ft 291kts
24-Sep-22 21:16 35.095693 -115.508330 252 28672ft 292kts
24-Sep-22 21:17 35.070468 -115.605745 252 28668ft 292kts
24-Sep-22 21:18 35.046490 -115.698021 252 28689ft 292kts
24-Sep-22 21:19 35.021437 -115.794790 252 28705ft 292kts
24-Sep-22 21:20 34.996543 -115.892552 252 28714ft 293kts
24-Sep-22 21:21 34.971544 -115.990369 252 28700ft 293kts
24-Sep-22 21:22 34.946318 -116.088714 252 28672ft 294kts
24-Sep-22 21:23 34.929501 -116.154077 252 28654ft 294kts
24-Sep-22 21:24 34.904055 -116.252654 252 28635ft 293kts
24-Sep-22 21:25 34.873143 -116.344934 227 28649ft 291kts
24-Sep-22 21:26 34.812502 -116.423094 226 27454ft 322kts
24-Sep-22 21:27 34.753074 -116.498711 226 25739ft 306kts
24-Sep-22 21:28 34.693757 -116.573813 223 25640ft 299kts
24-Sep-22 21:29 34.629184 -116.637424 219 24040ft 294kts
24-Sep-22 21:30 34.566769 -116.698452 218 23169ft 287kts
24-Sep-22 21:31 34.503980 -116.759782 220 21996ft 280kts
24-Sep-22 21:32 34.447883 -116.824912 223 19683ft 272kts
24-Sep-22 21:33 34.393648 -116.887819 223 17162ft 263kts
24-Sep-22 21:34 34.340690 -116.949138 223 15690ft 258kts
24-Sep-22 21:35 34.288942 -117.008699 223 14640ft 263kts
24-Sep-22 21:36 34.226607 -117.062576 210 14229ft 273kts
24-Sep-22 21:37 34.165314 -117.105526 203 13563ft 254kts
24-Sep-22 21:38 34.104553 -117.138245 203 12558ft 253kts
24-Sep-22 21:39 34.033439 -117.176328 203 12544ft 287kts
24-Sep-22 21:40 33.972029 -117.230464 229 11973ft 265kts
24-Sep-22 21:41 33.925105 -117.296084 229 11301ft 249kts
24-Sep-22 21:42 33.878660 -117.361750 229 10282ft 262kts
24-Sep-22 21:43 33.830988 -117.429047 229 9549ft 259kts
24-Sep-22 21:44 33.801060 -117.503349 250 8258ft 233kts
24-Sep-22 21:45 33.778474 -117.577335 250 7448ft 235kts
24-Sep-22 21:46 33.755365 -117.653595 249 7285ft 246kts
24-Sep-22 21:47 33.732836 -117.729417 250 5738ft 226kts
24-Sep-22 21:48 33.712493 -117.797881 250 4128ft 198kts
24-Sep-22 21:49 33.695631 -117.854465 249 4115ft 170kts
24-Sep-22 21:50 33.679593 -117.907873 250 4113ft 170kts
24-Sep-22 21:51 33.671894 -117.963989 266 3460ft 157kts
24-Sep-22 21:52 33.693773 -118.001388 314 3066ft 131kts
24-Sep-22 21:53 33.721402 -118.035572 314 2493ft 152kts
24-Sep-22 21:54 33.753243 -118.073851 314 1642ft 143kts
24-Sep-22 21:55 33.776605 -118.101902 314 1025ft 101kts
24-Sep-22 21:56 33.793839 -118.122427 315 508ft 92kts
24-Sep-22 21:57 33.809408 -118.141205 314 99ft 93kts
24-Sep-22 21:58 33.821157 -118.155614 310 48ft 27kts
24-Sep-22 21:59 33.819324 -118.157320 178 48ft 13kts
24-Sep-22 22:00 33.818079 -118.157626 272 49ft 0kts

Navigation Log

Ident Type
Flight plan parsing failed, navigation log unavailable